createdAt,value
2022-12-08T00:04:22.962Z,99859.17
2022-12-08T00:09:39.353Z,99852.23
2022-12-08T00:14:44.983Z,99854.85
2022-12-08T00:19:47.834Z,99863.89
2022-12-08T00:24:50.770Z,99870.65
2022-12-08T00:29:56.080Z,99885.33
2022-12-08T00:34:58.830Z,99889.55
2022-12-08T00:40:01.829Z,99894.18
2022-12-08T00:45:08.259Z,99900.02
2022-12-08T00:50:11.670Z,99905.98
2022-12-08T00:55:17.289Z,99911.34
2022-12-08T01:00:20.637Z,99915.46
2022-12-08T01:05:23.422Z,99920.15
2022-12-08T01:10:26.645Z,99925.00
2022-12-08T01:15:29.461Z,99926.70
2022-12-08T01:20:32.266Z,99929.38
2022-12-08T01:25:35.616Z,99935.70
2022-12-08T01:30:39.468Z,99936.92
2022-12-08T01:35:42.892Z,99939.75
2022-12-08T01:40:46.180Z,99941.08
2022-12-08T01:45:49.330Z,99941.46
2022-12-08T01:50:54.690Z,99936.44
2022-12-08T01:56:01.793Z,99942.05
2022-12-08T02:01:04.750Z,99940.33
2022-12-08T02:06:08.430Z,99946.14
2022-12-08T02:11:11.760Z,99947.39
2022-12-08T02:16:36.031Z,99945.91
2022-12-08T02:22:23.004Z,99947.20
2022-12-08T02:28:29.236Z,99947.30
2022-12-08T02:34:15.661Z,99960.18
2022-12-08T02:39:58.339Z,99953.70
2022-12-08T02:45:04.677Z,99954.85
2022-12-08T02:50:08.344Z,99962.45
2022-12-08T02:55:22.493Z,99965.69
2022-12-08T03:00:28.166Z,99975.17
2022-12-08T03:05:38.187Z,99975.55
2022-12-08T03:10:45.153Z,99976.21
2022-12-08T03:15:49.987Z,99976.95
2022-12-08T03:20:53.116Z,99986.03
2022-12-08T03:26:26.052Z,99996.50
2022-12-08T03:31:31.040Z,100003.99
2022-12-08T03:36:34.955Z,100010.54
2022-12-08T03:41:37.749Z,100002.13
2022-12-08T03:46:40.555Z,99999.14
2022-12-08T03:51:43.592Z,100004.13
2022-12-08T03:56:46.431Z,100004.20
2022-12-08T04:01:50.410Z,100002.16
2022-12-08T04:06:53.291Z,100005.48
2022-12-08T04:11:56.137Z,100014.29
2022-12-08T04:16:58.917Z,100022.70
2022-12-08T04:22:01.714Z,100032.71
2022-12-08T04:27:04.569Z,100035.01
2022-12-08T04:32:07.445Z,100038.24
2022-12-08T04:37:10.344Z,100039.91
2022-12-08T04:42:13.176Z,100042.42
2022-12-08T04:47:16.031Z,100041.79
2022-12-08T04:52:18.860Z,100046.00
2022-12-08T04:57:21.727Z,100051.64
2022-12-08T05:02:24.612Z,100039.20
2022-12-08T05:07:27.583Z,100047.17
2022-12-08T05:12:31.871Z,100055.61
2022-12-08T05:17:34.649Z,100065.39
2022-12-08T05:22:37.539Z,100063.91
2022-12-08T05:27:40.427Z,100061.64
2022-12-08T05:32:43.468Z,100070.25
2022-12-08T05:37:47.577Z,100069.30
2022-12-08T05:42:50.339Z,100059.46
2022-12-08T05:47:53.865Z,100064.29
2022-12-08T05:52:56.941Z,100060.21
2022-12-08T05:58:04.540Z,100068.80
2022-12-08T06:03:14.574Z,100080.21
2022-12-08T06:08:17.887Z,100093.88
2022-12-08T06:13:20.716Z,100107.40
2022-12-08T06:18:28.365Z,100113.52
2022-12-08T06:23:36.224Z,100123.29
2022-12-08T06:28:40.167Z,100131.80
2022-12-08T06:33:43.296Z,100140.69
2022-12-08T06:38:47.533Z,100131.45
2022-12-08T06:43:51.075Z,100125.30
2022-12-08T06:48:53.923Z,100120.23
2022-12-08T06:53:58.247Z,100120.34
2022-12-08T06:59:01.437Z,100126.83
2022-12-08T07:04:05.398Z,100137.80
2022-12-08T07:09:08.539Z,100145.95
2022-12-08T07:14:12.069Z,100153.33
2022-12-08T07:19:15.179Z,100156.81
2022-12-08T07:24:17.944Z,100159.27
2022-12-08T07:29:26.088Z,100165.91
2022-12-08T07:34:29.332Z,100165.48
2022-12-08T07:39:32.288Z,100169.11
2022-12-08T07:44:35.068Z,100170.59
2022-12-08T07:49:38.025Z,100175.95
2022-12-08T07:54:40.949Z,100183.20
2022-12-08T07:59:43.757Z,100188.00
2022-12-08T08:04:50.646Z,100188.13
2022-12-08T08:09:53.547Z,100188.10
2022-12-08T08:14:56.387Z,100191.75
2022-12-08T08:19:59.827Z,100190.64
2022-12-08T08:25:04.162Z,100191.91
2022-12-08T08:30:09.295Z,100191.88
2022-12-08T08:35:12.242Z,100202.51
2022-12-08T08:40:15.196Z,100208.61
2022-12-08T08:45:18.056Z,100217.11
2022-12-08T08:50:22.444Z,100217.08
2022-12-08T08:55:25.305Z,100216.50
2022-12-08T09:00:28.451Z,100213.43
2022-12-08T09:05:31.283Z,100212.34
2022-12-08T09:10:34.145Z,100212.25
2022-12-08T09:15:37.382Z,100208.11
2022-12-08T09:20:40.181Z,100205.34
2022-12-08T09:25:45.685Z,100206.17
2022-12-08T09:30:48.851Z,100197.80
2022-12-08T09:35:51.688Z,100191.91
2022-12-08T09:40:54.825Z,100186.75
2022-12-08T09:45:57.684Z,100184.46
2022-12-08T09:51:01.046Z,100183.30
2022-12-08T09:56:18.918Z,100177.89
2022-12-08T10:01:33.991Z,100173.84
2022-12-08T10:06:48.117Z,100168.34
2022-12-08T10:12:16.759Z,100170.61
2022-12-08T10:17:30.773Z,100167.09
2022-12-08T10:22:37.583Z,100154.73
2022-12-08T10:27:42.853Z,100154.89
2022-12-08T10:32:48.074Z,100154.23
2022-12-08T10:38:02.177Z,100148.79
2022-12-08T10:43:07.060Z,100150.09
2022-12-08T10:48:27.417Z,100147.80
2022-12-08T10:53:33.875Z,100141.42
2022-12-08T10:58:41.076Z,100122.88
2022-12-08T11:04:02.098Z,100123.99
2022-12-08T11:09:20.073Z,100124.46
2022-12-08T11:14:29.608Z,100120.13
2022-12-08T11:19:32.575Z,100120.27
2022-12-08T11:24:40.997Z,100119.55
2022-12-08T11:30:31.015Z,100118.64
2022-12-08T11:35:39.174Z,100119.54
2022-12-08T11:40:44.021Z,100117.15
2022-12-08T11:46:14.753Z,100113.98
2022-12-08T11:51:24.057Z,100108.88
2022-12-08T11:56:38.975Z,100099.52
2022-12-08T12:01:45.551Z,100104.86
2022-12-08T12:07:26.518Z,100101.25
2022-12-08T12:13:02.414Z,100098.05
2022-12-08T12:18:33.789Z,100097.48
2022-12-08T12:23:59.210Z,100093.88
2022-12-08T12:29:33.039Z,100084.93
2022-12-08T12:34:56.028Z,100079.64
2022-12-08T12:40:01.393Z,100075.05
2022-12-08T12:45:22.185Z,100070.83
2022-12-08T12:50:34.234Z,100068.68
2022-12-08T12:55:46.273Z,100061.65
2022-12-08T13:00:49.296Z,100058.73
2022-12-08T13:05:52.625Z,100053.30
2022-12-08T13:11:14.922Z,100046.30
2022-12-08T13:16:20.512Z,100046.84
2022-12-08T13:21:27.609Z,100052.39
2022-12-08T13:26:32.614Z,100052.92
2022-12-08T13:31:51.476Z,100051.37
2022-12-08T13:37:02.419Z,100053.09
2022-12-08T13:42:31.207Z,100052.44
2022-12-08T13:48:13.566Z,100049.91
2022-12-08T13:58:44.862Z,100045.73
2022-12-08T14:04:30.992Z,100048.77
2022-12-08T14:09:24.357Z,100044.38
2022-12-08T14:21:05.056Z,100030.75
2022-12-08T14:26:05.043Z,100028.31
2022-12-08T14:31:08.117Z,100028.28
2022-12-08T14:36:14.659Z,100030.79
2022-12-08T14:41:17.426Z,100033.84
2022-12-08T14:46:22.739Z,100036.52
2022-12-08T14:51:30.742Z,100036.94
2022-12-08T14:56:41.287Z,100036.33
2022-12-08T15:01:44.338Z,100037.26
2022-12-08T15:06:53.668Z,100035.89
2022-12-08T15:12:15.071Z,100030.63
2022-12-08T15:17:33.448Z,100033.89
2022-12-08T15:22:37.105Z,100031.20
2022-12-08T15:27:49.868Z,100026.33
2022-12-08T15:32:56.388Z,100025.29
2022-12-08T15:37:59.287Z,100021.60
2022-12-08T15:43:03.525Z,100016.23
2022-12-08T15:48:06.662Z,100016.73
2022-12-08T15:53:10.762Z,100022.11
2022-12-08T16:09:21.156Z,100037.94
2022-12-08T16:15:23.395Z,100040.98
2022-12-08T16:19:47.206Z,100035.72
2022-12-08T16:24:50.157Z,100032.52
2022-12-08T16:29:53.012Z,100033.00
2022-12-08T16:34:55.885Z,100035.66
2022-12-08T16:40:00.361Z,100035.50
2022-12-08T16:45:21.551Z,100037.29
2022-12-08T16:50:29.655Z,100031.82
2022-12-08T16:55:32.762Z,100023.20
2022-12-08T17:00:37.057Z,100022.58
2022-12-08T17:05:41.457Z,100026.70
2022-12-08T17:10:44.288Z,100025.91
2022-12-08T17:15:48.006Z,100022.36
2022-12-08T17:20:50.909Z,100025.66
2022-12-08T17:25:59.407Z,100030.88
2022-12-08T17:31:30.303Z,100029.36
2022-12-08T17:36:33.818Z,100028.71
2022-12-08T17:41:37.350Z,100024.66
2022-12-08T17:46:43.360Z,100024.23
2022-12-08T17:51:49.648Z,100024.56
2022-12-08T17:56:52.764Z,100022.77
2022-12-08T18:01:58.201Z,100028.19
2022-12-08T18:07:03.469Z,100028.13
2022-12-08T18:12:06.603Z,100032.31
2022-12-08T18:17:09.922Z,100038.29
2022-12-08T18:22:12.994Z,100042.91
2022-12-08T18:27:16.034Z,100038.20
2022-12-08T18:32:24.217Z,100034.23
2022-12-08T18:37:27.480Z,100026.86
2022-12-08T18:42:30.477Z,100022.36
2022-12-08T18:47:39.949Z,100019.05
2022-12-08T18:52:42.772Z,100019.27
2022-12-08T18:57:45.709Z,100020.03
2022-12-08T19:02:48.531Z,100025.02
2022-12-08T19:07:52.250Z,100020.09
2022-12-08T19:12:55.026Z,100021.02
2022-12-08T19:17:58.361Z,100021.83
2022-12-08T19:23:01.624Z,100026.07
2022-12-08T19:28:05.769Z,100024.55
2022-12-08T19:33:09.717Z,100021.18
2022-12-08T19:38:13.323Z,100019.78
2022-12-08T19:43:37.009Z,100019.89
2022-12-08T19:48:40.269Z,100012.33
2022-12-08T19:53:47.546Z,100007.40
2022-12-08T19:58:50.959Z,100011.46
2022-12-08T20:03:53.885Z,100010.86
2022-12-08T20:08:56.677Z,100010.55
2022-12-08T20:13:59.521Z,100013.27
2022-12-08T20:19:02.620Z,100015.75
2022-12-08T20:24:05.985Z,100021.31
2022-12-08T20:29:09.097Z,100022.27
2022-12-08T20:34:15.598Z,100025.67
2022-12-08T20:39:18.733Z,100028.38
2022-12-08T20:44:21.717Z,100027.16
2022-12-08T20:49:27.257Z,100030.45
2022-12-08T20:54:33.121Z,100031.68
2022-12-08T20:59:37.839Z,100032.92
2022-12-08T21:04:40.839Z,100031.05
2022-12-08T21:09:46.870Z,100027.46
2022-12-08T21:14:49.961Z,100020.67
2022-12-08T21:19:52.843Z,100021.64
2022-12-08T21:24:56.042Z,100020.04
2022-12-08T21:29:58.851Z,100013.36
2022-12-08T21:35:01.667Z,100015.17
2022-12-08T21:40:07.381Z,100009.34
2022-12-08T21:45:16.808Z,100011.83
2022-12-08T21:50:19.932Z,100013.09
2022-12-08T21:55:23.874Z,100008.98
2022-12-08T22:00:27.010Z,100011.06
2022-12-08T22:05:29.954Z,100009.23
2022-12-08T22:10:32.876Z,100008.66
2022-12-08T22:15:36.975Z,100002.27
2022-12-08T22:20:44.122Z,99999.10
2022-12-08T22:26:00.486Z,100001.21
2022-12-08T22:31:14.767Z,100000.95
2022-12-08T22:36:23.365Z,99999.13
2022-12-08T22:41:26.387Z,100003.08
2022-12-08T22:46:31.651Z,100004.31
2022-12-08T22:51:38.167Z,100008.42
2022-12-08T22:56:42.386Z,100006.49
2022-12-08T23:01:45.905Z,100004.56
2022-12-08T23:06:49.508Z,100001.79
2022-12-08T23:11:52.791Z,100003.45
2022-12-08T23:16:56.099Z,100001.48
2022-12-08T23:21:58.942Z,100007.70
2022-12-08T23:27:01.734Z,100013.24
2022-12-08T23:32:06.345Z,100014.43
2022-12-08T23:37:09.288Z,100015.83
2022-12-08T23:42:12.133Z,100017.02
2022-12-08T23:47:16.283Z,100016.09
2022-12-08T23:52:19.343Z,100012.98
2022-12-08T23:57:22.179Z,100007.15
